Time;durP1;ratioP1;P1;durP2;ratioP2;P2;SDS_P1;SDS_P2;PMS_P1;PMS_P2;Temp;Humidity;BMP_temperature;BMP_pressure;BME280_temperature;BME280_humidity;BME280_pressure;Samples;Min_cycle;Max_cycle;Signal;HPM_P1;HPM_P2
2022/01/06 00:01:22;;;;;;;3.33;3.03;;;;;;;;;;5036280;28;20031;-59
2022/01/06 00:03:47;;;;;;;13.60;3.70;;;;;;;;;;5038577;28;20107;-59
2022/01/06 00:06:13;;;;;;;7.25;3.33;;;;;;;;;;5040633;28;20037;-59
2022/01/06 00:08:39;;;;;;;4.75;3.45;;;;;;;;;;5039520;28;20872;-59
2022/01/06 00:11:07;;;;;;;3.42;3.00;;;;;;;;;;5038120;28;20458;-59
2022/01/06 00:14:01;;;;;;;4.28;3.30;;;;;;;;;;5037765;28;20046;-59
2022/01/06 00:23:56;;;;;;;3.13;2.83;;;;;;;;;;5038791;28;20037;-58
2022/01/06 00:26:21;;;;;;;9.45;3.47;;;;;;;;;;5038478;28;20448;-59
2022/01/06 00:28:46;;;;;;;3.40;3.10;;;;;;;;;;5035619;28;20502;-59
2022/01/06 00:31:12;;;;;;;3.75;3.45;;;;;;;;;;5045037;28;20740;-59
2022/01/06 00:33:37;;;;;;;3.67;3.38;;;;;;;;;;5038522;28;20416;-58
2022/01/06 00:36:03;;;;;;;3.00;2.70;;;;;;;;;;5038606;28;20477;-58
2022/01/06 00:38:28;;;;;;;3.30;3.00;;;;;;;;;;5039207;28;20403;-58
2022/01/06 00:40:54;;;;;;;3.50;3.20;;;;;;;;;;5036990;28;20148;-60
2022/01/06 00:43:20;;;;;;;3.60;3.30;;;;;;;;;;5038139;28;20041;-60
2022/01/06 00:45:45;;;;;;;3.50;3.20;;;;;;;;;;5037575;28;20455;-60
2022/01/06 00:48:11;;;;;;;3.83;3.38;;;;;;;;;;5039050;28;20029;-58
2022/01/06 00:50:41;;;;;;;3.60;3.25;;;;;;;;;;5039935;28;20462;-58
2022/01/06 00:53:06;;;;;;;3.45;3.15;;;;;;;;;;5043426;28;20102;-58
2022/01/06 00:55:36;;;;;;;3.30;2.90;;;;;;;;;;5042523;28;20041;-58
2022/01/06 00:58:03;;;;;;;3.47;3.17;;;;;;;;;;5038594;28;20029;-59
2022/01/06 01:00:38;;;;;;;3.28;2.97;;;;;;;;;;5043507;28;20083;-59
2022/01/06 01:03:24;;;;;;;3.70;3.40;;;;;;;;;;5043355;28;20083;-59
2022/01/06 01:05:51;;;;;;;3.53;3.22;;;;;;;;;;5044920;28;20336;-58
2022/01/06 01:08:17;;;;;;;7.22;3.10;;;;;;;;;;5042138;28;20025;-58
2022/01/06 01:10:43;;;;;;;4.00;3.65;;;;;;;;;;5042409;28;20034;-59
2022/01/06 01:13:12;;;;;;;3.92;3.10;;;;;;;;;;5039654;28;20033;-59
2022/01/06 01:15:52;;;;;;;3.75;3.13;;;;;;;;;;5040346;28;20033;-59
2022/01/06 01:18:19;;;;;;;2.72;2.33;;;;;;;;;;5040125;28;20074;-59
2022/01/06 01:20:46;;;;;;;4.60;3.35;;;;;;;;;;5038995;28;20040;-59
2022/01/06 01:23:12;;;;;;;3.05;2.72;;;;;;;;;;5041036;28;20132;-58
2022/01/06 01:25:37;;;;;;;3.22;2.88;;;;;;;;;;5042559;28;20043;-58
2022/01/06 01:28:04;;;;;;;3.65;3.15;;;;;;;;;;5039451;28;20113;-59
2022/01/06 01:30:32;;;;;;;3.67;3.38;;;;;;;;;;5041219;28;20044;-59
2022/01/06 01:32:59;;;;;;;4.40;3.42;;;;;;;;;;5040967;28;20026;-59
2022/01/06 01:35:31;;;;;;;2.80;2.42;;;;;;;;;;5038723;28;20033;-59
2022/01/06 01:37:58;;;;;;;3.45;3.08;;;;;;;;;;5039902;28;20393;-59
2022/01/06 01:40:24;;;;;;;3.75;2.90;;;;;;;;;;5042686;28;20048;-58
2022/01/06 01:42:49;;;;;;;2.92;2.60;;;;;;;;;;5038414;28;20451;-58
2022/01/06 01:45:16;;;;;;;3.15;2.85;;;;;;;;;;5039012;28;20122;-59
2022/01/06 01:47:44;;;;;;;2.65;2.25;;;;;;;;;;5044333;28;20047;-59
2022/01/06 01:50:14;;;;;;;3.13;2.83;;;;;;;;;;5038707;28;20033;-59
2022/01/06 01:52:45;;;;;;;3.20;2.90;;;;;;;;;;5039801;28;20033;-58
2022/01/06 01:55:17;;;;;;;2.75;2.30;;;;;;;;;;5044477;28;20270;-58
2022/01/06 01:57:42;;;;;;;3.47;2.70;;;;;;;;;;5038856;28;20025;-58
2022/01/06 02:00:10;;;;;;;2.75;2.35;;;;;;;;;;5041386;28;20029;-59
2022/01/06 02:02:36;;;;;;;3.10;2.60;;;;;;;;;;5037776;28;20088;-58
2022/01/06 02:05:01;;;;;;;3.22;2.92;;;;;;;;;;5038362;28;20362;-59
2022/01/06 02:07:27;;;;;;;2.90;2.60;;;;;;;;;;5040647;28;20108;-59
2022/01/06 02:09:52;;;;;;;3.28;2.58;;;;;;;;;;5040232;28;20029;-59
2022/01/06 02:12:31;;;;;;;4.57;3.45;;;;;;;;;;5038446;28;20525;-59
2022/01/06 02:14:58;;;;;;;2.80;2.50;;;;;;;;;;5040347;28;20033;-59
2022/01/06 02:17:23;;;;;;;4.60;3.33;;;;;;;;;;5041952;28;20033;-59
2022/01/06 02:19:57;;;;;;;2.88;2.47;;;;;;;;;;5038416;28;20103;-59
2022/01/06 02:22:22;;;;;;;7.53;3.83;;;;;;;;;;5040773;28;20025;-59
2022/01/06 02:24:49;;;;;;;15.88;3.13;;;;;;;;;;5040554;28;20352;-59
2022/01/06 02:27:14;;;;;;;3.00;2.70;;;;;;;;;;5040436;28;20033;-59
2022/01/06 02:29:40;;;;;;;2.80;2.22;;;;;;;;;;5039951;28;20119;-63
2022/01/06 02:32:14;;;;;;;3.00;2.40;;;;;;;;;;5039693;28;20053;-64
2022/01/06 02:34:39;;;;;;;4.05;3.55;;;;;;;;;;5040771;28;20029;-64
2022/01/06 02:37:04;;;;;;;4.03;2.90;;;;;;;;;;5039563;28;20117;-65
2022/01/06 02:39:30;;;;;;;2.75;2.30;;;;;;;;;;5038126;28;20118;-64
2022/01/06 02:41:55;;;;;;;3.15;2.60;;;;;;;;;;5039357;28;20035;-64
2022/01/06 02:44:23;;;;;;;3.33;2.92;;;;;;;;;;5037623;28;20035;-64
2022/01/06 02:46:49;;;;;;;3.05;2.60;;;;;;;;;;5037696;28;20036;-64
2022/01/06 02:49:14;;;;;;;2.80;2.40;;;;;;;;;;5038105;28;20041;-63
2022/01/06 02:51:41;;;;;;;3.13;2.78;;;;;;;;;;5039527;28;20100;-63
2022/01/06 02:54:06;;;;;;;3.90;2.95;;;;;;;;;;5040101;28;20049;-64
2022/01/06 02:56:32;;;;;;;3.25;2.88;;;;;;;;;;5038086;28;20141;-64
2022/01/06 02:58:58;;;;;;;3.03;2.55;;;;;;;;;;5040318;28;20412;-64
2022/01/06 03:01:23;;;;;;;3.33;2.90;;;;;;;;;;5041555;28;20118;-64
2022/01/06 03:03:49;;;;;;;2.80;2.38;;;;;;;;;;5037861;28;20033;-63
2022/01/06 03:06:14;;;;;;;5.80;3.17;;;;;;;;;;5037466;28;20121;-64
2022/01/06 03:08:39;;;;;;;3.05;2.35;;;;;;;;;;5040839;28;20036;-64
2022/01/06 03:11:07;;;;;;;3.05;2.75;;;;;;;;;;5036577;28;20528;-65
2022/01/06 03:13:32;;;;;;;2.95;2.53;;;;;;;;;;5036494;28;20483;-64
2022/01/06 03:15:59;;;;;;;3.53;3.15;;;;;;;;;;5036186;28;20108;-64
2022/01/06 03:18:24;;;;;;;2.85;2.40;;;;;;;;;;5036050;28;20524;-65
2022/01/06 03:20:49;;;;;;;2.92;2.63;;;;;;;;;;5037302;28;20040;-64
2022/01/06 03:23:15;;;;;;;3.25;2.95;;;;;;;;;;5037319;28;20030;-65
2022/01/06 03:25:40;;;;;;;3.03;2.72;;;;;;;;;;5039756;28;20530;-65
2022/01/06 03:28:06;;;;;;;3.10;2.80;;;;;;;;;;5037956;28;20033;-65
2022/01/06 03:30:31;;;;;;;3.05;2.75;;;;;;;;;;5041871;28;20116;-65
2022/01/06 03:32:56;;;;;;;7.45;3.30;;;;;;;;;;5036772;28;20609;-64
2022/01/06 03:35:23;;;;;;;3.00;2.70;;;;;;;;;;5038317;28;20044;-65
2022/01/06 03:37:49;;;;;;;2.90;2.50;;;;;;;;;;5039290;28;20586;-65
2022/01/06 03:40:14;;;;;;;2.90;2.40;;;;;;;;;;5045572;28;20037;-65
2022/01/06 03:42:40;;;;;;;8.10;3.05;;;;;;;;;;5038836;28;20379;-65
2022/01/06 03:45:08;;;;;;;3.78;3.17;;;;;;;;;;5038529;28;20371;-65
2022/01/06 03:47:34;;;;;;;4.35;3.03;;;;;;;;;;5039179;28;20026;-65
2022/01/06 03:49:59;;;;;;;4.57;3.03;;;;;;;;;;5036800;28;20416;-65
2022/01/06 03:52:25;;;;;;;2.92;2.63;;;;;;;;;;5035606;28;20109;-65
2022/01/06 03:54:51;;;;;;;2.83;2.35;;;;;;;;;;5040357;28;20378;-64
2022/01/06 03:57:17;;;;;;;3.08;2.78;;;;;;;;;;5038810;28;20052;-65
2022/01/06 03:59:42;;;;;;;3.80;2.58;;;;;;;;;;5038692;28;20470;-64
2022/01/06 04:02:08;;;;;;;2.90;2.53;;;;;;;;;;5038518;28;20080;-65
2022/01/06 04:04:33;;;;;;;7.05;2.70;;;;;;;;;;5035294;28;20041;-64
2022/01/06 04:06:58;;;;;;;3.70;3.00;;;;;;;;;;5039024;28;20029;-64
2022/01/06 04:09:24;;;;;;;3.38;2.60;;;;;;;;;;5036590;28;20036;-64
2022/01/06 04:11:49;;;;;;;7.38;2.78;;;;;;;;;;5039195;28;20341;-64
2022/01/06 04:14:15;;;;;;;3.22;2.80;;;;;;;;;;5037843;28;20025;-64
2022/01/06 04:16:41;;;;;;;3.08;2.65;;;;;;;;;;5041153;28;20779;-65
2022/01/06 04:19:07;;;;;;;2.92;2.63;;;;;;;;;;5038280;28;20037;-63
2022/01/06 04:21:33;;;;;;;2.90;2.60;;;;;;;;;;5036490;28;20148;-64
2022/01/06 04:23:58;;;;;;;3.08;2.78;;;;;;;;;;5039867;28;20112;-64
2022/01/06 04:26:24;;;;;;;2.85;2.47;;;;;;;;;;5039514;28;20522;-64
2022/01/06 04:28:49;;;;;;;3.00;2.67;;;;;;;;;;5041095;28;20048;-65
2022/01/06 04:31:15;;;;;;;3.45;2.90;;;;;;;;;;5043906;28;20078;-63
2022/01/06 04:33:40;;;;;;;2.78;2.25;;;;;;;;;;5039346;28;20171;-65
2022/01/06 04:36:06;;;;;;;2.90;2.60;;;;;;;;;;5042293;28;20090;-65
2022/01/06 04:38:33;;;;;;;3.20;2.90;;;;;;;;;;5042016;28;20136;-65
2022/01/06 04:40:58;;;;;;;3.53;3.13;;;;;;;;;;5042481;28;20028;-65
2022/01/06 04:43:24;;;;;;;9.02;2.83;;;;;;;;;;5038890;28;20029;-64
2022/01/06 04:45:50;;;;;;;4.18;3.25;;;;;;;;;;5040333;28;20047;-64
2022/01/06 04:48:15;;;;;;;2.97;2.65;;;;;;;;;;5041156;28;20362;-60
2022/01/06 04:50:41;;;;;;;3.15;2.80;;;;;;;;;;5040798;28;20039;-64
2022/01/06 04:53:06;;;;;;;2.90;2.42;;;;;;;;;;5042549;28;20794;-64
2022/01/06 04:55:32;;;;;;;3.00;2.70;;;;;;;;;;5040261;28;20386;-64
2022/01/06 04:57:57;;;;;;;3.30;3.00;;;;;;;;;;5045677;28;20113;-64
2022/01/06 05:00:22;;;;;;;2.80;2.50;;;;;;;;;;5038400;28;20086;-65
2022/01/06 05:02:48;;;;;;;3.53;3.22;;;;;;;;;;5042454;28;20037;-65
2022/01/06 05:05:13;;;;;;;3.05;2.75;;;;;;;;;;5038043;28;20121;-65
2022/01/06 05:07:42;;;;;;;3.83;3.22;;;;;;;;;;5043555;28;20124;-65
2022/01/06 05:10:09;;;;;;;3.03;2.72;;;;;;;;;;5040024;28;20021;-65
2022/01/06 05:12:45;;;;;;;3.03;2.70;;;;;;;;;;5041543;28;20061;-65
2022/01/06 05:15:12;;;;;;;3.00;2.70;;;;;;;;;;5039440;28;20055;-65
2022/01/06 05:17:38;;;;;;;7.93;2.95;;;;;;;;;;5043238;28;20032;-64
2022/01/06 05:20:04;;;;;;;5.78;3.10;;;;;;;;;;5039071;28;20036;-64
2022/01/06 05:22:31;;;;;;;5.68;2.88;;;;;;;;;;5042626;28;20072;-64
2022/01/06 05:24:56;;;;;;;3.00;2.70;;;;;;;;;;5040710;28;20108;-63
2022/01/06 05:27:22;;;;;;;3.63;3.15;;;;;;;;;;5042042;28;20109;-63
2022/01/06 05:29:47;;;;;;;3.72;3.22;;;;;;;;;;5040673;28;20056;-64
2022/01/06 05:32:12;;;;;;;3.03;2.63;;;;;;;;;;5041583;28;20029;-62
2022/01/06 05:34:38;;;;;;;3.33;2.75;;;;;;;;;;5041120;28;20109;-62
2022/01/06 05:37:04;;;;;;;3.15;2.85;;;;;;;;;;5038597;28;20029;-63
2022/01/06 05:39:29;;;;;;;3.05;2.70;;;;;;;;;;5041039;28;20029;-64
2022/01/06 05:41:54;;;;;;;8.82;3.55;;;;;;;;;;5039393;28;20470;-64
2022/01/06 05:44:20;;;;;;;2.97;2.65;;;;;;;;;;5041282;28;20025;-62
2022/01/06 05:46:47;;;;;;;3.28;2.58;;;;;;;;;;5041085;28;20056;-64
2022/01/06 05:49:14;;;;;;;2.85;2.55;;;;;;;;;;5040891;28;20386;-64
2022/01/06 05:51:39;;;;;;;3.38;2.90;;;;;;;;;;5038872;28;20033;-65
2022/01/06 05:54:05;;;;;;;3.33;2.75;;;;;;;;;;5041532;28;20032;-64
2022/01/06 05:56:30;;;;;;;3.92;3.53;;;;;;;;;;5037706;28;20107;-64
2022/01/06 05:58:55;;;;;;;3.38;3.08;;;;;;;;;;5037236;28;20036;-64
2022/01/06 06:01:21;;;;;;;3.25;2.95;;;;;;;;;;5036954;28;20746;-63
2022/01/06 06:03:46;;;;;;;3.80;2.80;;;;;;;;;;5034751;28;20114;-64
2022/01/06 06:06:11;;;;;;;3.20;2.90;;;;;;;;;;5037432;28;20038;-64
2022/01/06 06:08:37;;;;;;;3.45;2.85;;;;;;;;;;5035989;28;20033;-65
2022/01/06 06:11:02;;;;;;;3.33;3.03;;;;;;;;;;5039432;28;20461;-65
2022/01/06 06:13:27;;;;;;;4.45;2.97;;;;;;;;;;5040996;28;20052;-64
2022/01/06 06:15:53;;;;;;;3.40;3.08;;;;;;;;;;5036442;28;20043;-65
2022/01/06 06:18:18;;;;;;;3.65;3.00;;;;;;;;;;5039414;28;20100;-65
2022/01/06 06:20:44;;;;;;;2.75;2.35;;;;;;;;;;5036655;28;20057;-65
2022/01/06 06:23:09;;;;;;;3.10;2.78;;;;;;;;;;5036027;28;20041;-65
2022/01/06 06:25:34;;;;;;;2.95;2.58;;;;;;;;;;5026531;28;20529;-64
2022/01/06 06:28:00;;;;;;;7.10;3.13;;;;;;;;;;5038399;28;20123;-65
2022/01/06 06:30:26;;;;;;;2.88;2.58;;;;;;;;;;5039000;28;20024;-65
2022/01/06 06:32:51;;;;;;;3.70;3.28;;;;;;;;;;5041277;28;20024;-64
2022/01/06 06:35:16;;;;;;;2.88;2.45;;;;;;;;;;5040493;28;20053;-64
2022/01/06 06:37:42;;;;;;;2.70;2.25;;;;;;;;;;5036131;28;20037;-63
2022/01/06 06:40:08;;;;;;;3.03;2.67;;;;;;;;;;5039771;28;20379;-64
2022/01/06 06:42:34;;;;;;;5.22;2.90;;;;;;;;;;5039696;28;20091;-63
2022/01/06 06:45:00;;;;;;;2.83;2.40;;;;;;;;;;5039723;28;20080;-63
2022/01/06 06:47:25;;;;;;;2.88;2.38;;;;;;;;;;5038482;28;20511;-63
2022/01/06 06:49:51;;;;;;;3.33;3.00;;;;;;;;;;5038749;28;20412;-63
2022/01/06 06:52:16;;;;;;;2.67;2.17;;;;;;;;;;5039443;28;20033;-63
2022/01/06 06:54:42;;;;;;;2.90;2.58;;;;;;;;;;5038752;28;20567;-63
2022/01/06 06:57:08;;;;;;;3.20;2.85;;;;;;;;;;5039719;28;20032;-63
2022/01/06 06:59:34;;;;;;;3.47;2.78;;;;;;;;;;5037462;28;20097;-63
2022/01/06 07:01:59;;;;;;;5.03;3.83;;;;;;;;;;5040229;28;20126;-64
2022/01/06 07:04:25;;;;;;;5.10;3.03;;;;;;;;;;5036313;28;20087;-64
2022/01/06 07:06:50;;;;;;;4.85;3.67;;;;;;;;;;5035312;28;20045;-63
2022/01/06 07:09:16;;;;;;;4.65;3.55;;;;;;;;;;5038485;28;20025;-63
2022/01/06 07:11:41;;;;;;;2.85;2.42;;;;;;;;;;5037330;28;20087;-64
2022/01/06 07:14:06;;;;;;;10.93;3.80;;;;;;;;;;5034525;28;20712;-64
2022/01/06 07:16:32;;;;;;;3.33;3.03;;;;;;;;;;5034768;28;20030;-63
2022/01/06 07:18:57;;;;;;;3.20;2.90;;;;;;;;;;5037171;28;20163;-63
2022/01/06 07:21:22;;;;;;;3.72;3.30;;;;;;;;;;5039003;28;20403;-65
2022/01/06 07:23:48;;;;;;;4.65;3.60;;;;;;;;;;5037818;28;20477;-64
2022/01/06 07:26:13;;;;;;;3.78;3.35;;;;;;;;;;5037362;28;20107;-64
2022/01/06 07:28:38;;;;;;;3.55;3.05;;;;;;;;;;5038253;28;20489;-63
2022/01/06 07:31:04;;;;;;;3.17;2.88;;;;;;;;;;5036190;28;20105;-64
2022/01/06 07:33:31;;;;;;;6.93;3.97;;;;;;;;;;5038733;28;20033;-63
2022/01/06 07:35:56;;;;;;;6.50;4.03;;;;;;;;;;5044545;28;20029;-64
2022/01/06 07:38:23;;;;;;;4.55;3.13;;;;;;;;;;5035288;28;20032;-63
2022/01/06 07:40:48;;;;;;;3.10;2.75;;;;;;;;;;5039273;28;20036;-63
2022/01/06 07:43:13;;;;;;;2.92;2.63;;;;;;;;;;5039608;28;20480;-64
2022/01/06 07:45:39;;;;;;;3.92;3.20;;;;;;;;;;5035806;28;20468;-63
2022/01/06 07:48:14;;;;;;;5.47;4.28;;;;;;;;;;5037889;28;20029;-63
2022/01/06 07:50:40;;;;;;;4.05;2.85;;;;;;;;;;5042092;28;20514;-63
2022/01/06 07:53:05;;;;;;;3.67;3.30;;;;;;;;;;5037127;28;20033;-63
2022/01/06 07:55:31;;;;;;;2.97;2.67;;;;;;;;;;5035486;28;20044;-63
2022/01/06 07:57:56;;;;;;;3.65;3.33;;;;;;;;;;5036929;28;20478;-63
2022/01/06 08:00:23;;;;;;;2.80;2.50;;;;;;;;;;5035990;28;20078;-63
2022/01/06 08:02:48;;;;;;;4.35;3.50;;;;;;;;;;5037341;28;20118;-63
2022/01/06 08:05:15;;;;;;;3.45;2.80;;;;;;;;;;5037686;28;20064;-63
2022/01/06 08:07:41;;;;;;;2.80;2.38;;;;;;;;;;5036854;28;20568;-63
2022/01/06 08:10:08;;;;;;;3.10;2.80;;;;;;;;;;5036047;28;20029;-63
2022/01/06 08:12:35;;;;;;;4.55;2.83;;;;;;;;;;5036044;28;20045;-63
2022/01/06 08:15:00;;;;;;;3.45;2.97;;;;;;;;;;5038522;28;20447;-58
2022/01/06 08:17:25;;;;;;;3.25;2.95;;;;;;;;;;5038354;28;20061;-58
2022/01/06 08:19:52;;;;;;;3.15;2.80;;;;;;;;;;5036347;28;20036;-58
2022/01/06 08:22:18;;;;;;;4.43;2.72;;;;;;;;;;5038886;28;20339;-58
2022/01/06 08:24:44;;;;;;;3.85;3.45;;;;;;;;;;5037343;28;20725;-58
2022/01/06 08:27:09;;;;;;;2.72;2.35;;;;;;;;;;5038218;28;20122;-63
2022/01/06 08:29:39;;;;;;;6.00;3.22;;;;;;;;;;5035677;28;20080;-58
2022/01/06 08:32:05;;;;;;;3.22;2.92;;;;;;;;;;5036033;28;20094;-62
2022/01/06 08:34:30;;;;;;;3.20;2.90;;;;;;;;;;5037922;28;20053;-63
2022/01/06 08:36:56;;;;;;;3.17;2.88;;;;;;;;;;5038734;28;20037;-63
2022/01/06 08:39:22;;;;;;;3.65;3.33;;;;;;;;;;5037182;28;20028;-64
2022/01/06 08:41:49;;;;;;;3.45;2.97;;;;;;;;;;5040291;28;20115;-64
2022/01/06 08:44:14;;;;;;;3.30;3.00;;;;;;;;;;5036722;28;20172;-63
2022/01/06 08:46:41;;;;;;;3.03;2.72;;;;;;;;;;5036268;28;20406;-63
2022/01/06 08:49:07;;;;;;;4.15;3.28;;;;;;;;;;5034542;28;20029;-58
2022/01/06 08:51:32;;;;;;;4.70;3.47;;;;;;;;;;5036058;28;20037;-59
2022/01/06 08:53:58;;;;;;;3.80;3.22;;;;;;;;;;5035665;28;20028;-59
2022/01/06 08:56:24;;;;;;;3.58;3.28;;;;;;;;;;5035082;28;20036;-64
2022/01/06 08:58:49;;;;;;;3.30;2.92;;;;;;;;;;5038015;28;20044;-64
2022/01/06 09:01:15;;;;;;;3.58;3.05;;;;;;;;;;5036327;28;20037;-59
2022/01/06 09:03:40;;;;;;;3.30;3.00;;;;;;;;;;5039913;28;20041;-62
2022/01/06 09:06:06;;;;;;;3.88;3.28;;;;;;;;;;5041302;28;20025;-63
2022/01/06 09:08:31;;;;;;;4.65;3.47;;;;;;;;;;5037049;28;20040;-63
2022/01/06 09:10:56;;;;;;;7.07;3.95;;;;;;;;;;5038742;28;20122;-64
2022/01/06 09:13:22;;;;;;;2.80;2.50;;;;;;;;;;5042506;28;20047;-64
2022/01/06 09:15:47;;;;;;;6.10;4.25;;;;;;;;;;5038777;28;20029;-63
2022/01/06 09:18:12;;;;;;;3.20;2.90;;;;;;;;;;5042068;28;20029;-63
2022/01/06 09:20:38;;;;;;;3.00;2.70;;;;;;;;;;5042885;28;20047;-63
2022/01/06 09:23:03;;;;;;;3.05;2.75;;;;;;;;;;5040421;28;20458;-63
2022/01/06 09:25:29;;;;;;;3.40;2.88;;;;;;;;;;5045992;28;20064;-64
2022/01/06 09:27:54;;;;;;;2.97;2.67;;;;;;;;;;5039031;28;20037;-64
2022/01/06 09:30:23;;;;;;;3.45;3.15;;;;;;;;;;5043063;28;20078;-64
2022/01/06 09:32:49;;;;;;;3.42;3.13;;;;;;;;;;5040812;28;20055;-59
2022/01/06 09:35:14;;;;;;;16.65;3.97;;;;;;;;;;5038739;28;20029;-58
2022/01/06 09:37:40;;;;;;;3.67;3.38;;;;;;;;;;5039259;28;20393;-58
2022/01/06 09:40:08;;;;;;;4.18;3.17;;;;;;;;;;5040676;28;20120;-59
2022/01/06 09:42:34;;;;;;;3.53;3.22;;;;;;;;;;5040539;28;20041;-59
2022/01/06 09:45:00;;;;;;;3.58;2.97;;;;;;;;;;5040189;28;20087;-59
2022/01/06 09:47:27;;;;;;;3.40;3.10;;;;;;;;;;5042158;28;20366;-59
2022/01/06 09:49:53;;;;;;;4.38;3.88;;;;;;;;;;5042301;28;20056;-59
2022/01/06 09:52:20;;;;;;;3.88;3.58;;;;;;;;;;5040708;28;20497;-59
2022/01/06 09:54:46;;;;;;;14.00;3.65;;;;;;;;;;5042740;28;20040;-59
2022/01/06 09:57:14;;;;;;;4.05;3.65;;;;;;;;;;5040839;28;20513;-59
2022/01/06 09:59:41;;;;;;;6.43;3.85;;;;;;;;;;5039138;28;20128;-59
2022/01/06 10:02:13;;;;;;;3.50;3.13;;;;;;;;;;5040263;28;20032;-59
2022/01/06 10:04:38;;;;;;;3.55;3.25;;;;;;;;;;5040248;28;20071;-58
2022/01/06 10:07:06;;;;;;;3.38;3.08;;;;;;;;;;5039436;28;20442;-59
2022/01/06 10:09:34;;;;;;;5.38;4.00;;;;;;;;;;5043805;28;20037;-58
2022/01/06 10:12:03;;;;;;;7.85;3.33;;;;;;;;;;5041603;28;20102;-59
2022/01/06 10:14:43;;;;;;;3.47;3.17;;;;;;;;;;5041039;28;20425;-59
2022/01/06 10:17:10;;;;;;;4.22;3.55;;;;;;;;;;5039130;28;20036;-58
2022/01/06 10:19:40;;;;;;;4.00;3.35;;;;;;;;;;5038837;28;20033;-58
2022/01/06 10:22:12;;;;;;;6.40;3.38;;;;;;;;;;5040723;28;20045;-58
2022/01/06 10:24:37;;;;;;;4.25;3.63;;;;;;;;;;5040901;28;20029;-59
2022/01/06 10:27:09;;;;;;;3.30;3.00;;;;;;;;;;5038155;28;20039;-58
2022/01/06 10:29:52;;;;;;;3.42;3.13;;;;;;;;;;5041197;28;20430;-58
2022/01/06 10:32:21;;;;;;;3.30;3.00;;;;;;;;;;5040046;28;20039;-63
2022/01/06 10:34:53;;;;;;;6.15;3.63;;;;;;;;;;5038130;28;20104;-64
2022/01/06 10:37:26;;;;;;;3.70;3.30;;;;;;;;;;5039821;28;20033;-63
2022/01/06 10:39:59;;;;;;;4.13;3.72;;;;;;;;;;5039619;28;20116;-58
2022/01/06 10:42:30;;;;;;;5.70;3.25;;;;;;;;;;5036881;28;20402;-58
2022/01/06 10:45:03;;;;;;;5.00;4.32;;;;;;;;;;5039361;28;20118;-58
2022/01/06 10:47:39;;;;;;;11.55;4.50;;;;;;;;;;5039571;28;20032;-57
2022/01/06 10:50:07;;;;;;;5.45;3.92;;;;;;;;;;5039290;28;20053;-63
2022/01/06 10:52:32;;;;;;;5.10;3.75;;;;;;;;;;5041584;28;20024;-58
2022/01/06 10:55:28;;;;;;;5.05;4.15;;;;;;;;;;5040190;28;20432;-58
2022/01/06 10:57:57;;;;;;;3.65;3.33;;;;;;;;;;5039380;28;20036;-64
2022/01/06 11:00:38;;;;;;;8.57;3.75;;;;;;;;;;5038284;28;20444;-59
2022/01/06 11:03:15;;;;;;;4.53;3.47;;;;;;;;;;5042075;28;20074;-58
2022/01/06 11:05:55;;;;;;;3.67;3.38;;;;;;;;;;5039983;28;20037;-63
2022/01/06 11:08:26;;;;;;;3.95;3.55;;;;;;;;;;5038503;28;20112;-65
2022/01/06 11:11:32;;;;;;;5.07;3.40;;;;;;;;;;5039342;28;20443;-65
2022/01/06 11:13:49;;;;;;;4.03;3.63;;;;;;;;;;5037931;28;20610;-65
2022/01/06 11:16:19;;;;;;;10.10;3.90;;;;;;;;;;5039462;28;20021;-66
2022/01/06 11:18:56;;;;;;;11.27;4.65;;;;;;;;;;5037026;28;20036;-61
2022/01/06 11:21:34;;;;;;;5.30;4.80;;;;;;;;;;5039611;28;20048;-59
2022/01/06 11:24:17;;;;;;;5.20;4.70;;;;;;;;;;5046153;28;20026;-59
2022/01/06 11:27:08;;;;;;;5.07;3.65;;;;;;;;;;5040774;28;20362;-65
2022/01/06 11:29:38;;;;;;;6.25;3.22;;;;;;;;;;5039756;28;20107;-64
2022/01/06 11:32:17;;;;;;;3.40;3.10;;;;;;;;;;5037585;28;20328;-65
2022/01/06 11:34:43;;;;;;;3.67;3.22;;;;;;;;;;5036582;28;20043;-65
2022/01/06 11:37:17;;;;;;;3.60;3.30;;;;;;;;;;5038541;28;20108;-59
2022/01/06 11:39:44;;;;;;;3.80;3.50;;;;;;;;;;5035381;28;20478;-59
2022/01/06 11:42:18;;;;;;;4.57;4.18;;;;;;;;;;5038088;28;20099;-65
2022/01/06 11:44:49;;;;;;;4.53;4.00;;;;;;;;;;5036874;28;20061;-65
2022/01/06 11:47:15;;;;;;;17.02;4.28;;;;;;;;;;5040683;28;20025;-65
2022/01/06 11:49:44;;;;;;;4.53;3.85;;;;;;;;;;5036269;28;20037;-64
2022/01/06 11:52:11;;;;;;;3.72;3.33;;;;;;;;;;5038483;28;20029;-63
2022/01/06 11:54:55;;;;;;;7.15;3.55;;;;;;;;;;5022589;28;20517;-65
2022/01/06 11:57:37;;;;;;;4.45;4.05;;;;;;;;;;5038055;28;20105;-64
2022/01/06 12:00:19;;;;;;;4.88;4.13;;;;;;;;;;5042577;28;20029;-65
2022/01/06 12:03:03;;;;;;;;;;;;;;;;;;5035810;28;20119;-65
2022/01/06 12:05:51;;;;;;;9.48;4.47;;;;;;;;;;5036615;28;19983;-65
2022/01/06 12:08:21;;;;;;;5.57;3.83;;;;;;;;;;5039001;28;20037;-60
2022/01/06 12:10:51;;;;;;;4.78;4.00;;;;;;;;;;5033492;28;20479;-61
2022/01/06 12:13:18;;;;;;;4.70;3.67;;;;;;;;;;5037124;28;20034;-60
2022/01/06 12:16:01;;;;;;;6.63;4.53;;;;;;;;;;5039643;28;20126;-60
2022/01/06 12:18:28;;;;;;;3.75;3.22;;;;;;;;;;5036895;28;20041;-58
2022/01/06 12:20:57;;;;;;;3.85;3.00;;;;;;;;;;5035474;28;20355;-57
2022/01/06 12:23:23;;;;;;;3.67;3.33;;;;;;;;;;5037060;28;20132;-59
2022/01/06 12:26:00;;;;;;;6.85;4.07;;;;;;;;;;5037240;28;20137;-58
2022/01/06 12:28:26;;;;;;;4.30;3.72;;;;;;;;;;5036787;28;20037;-59
2022/01/06 12:30:59;;;;;;;3.85;3.45;;;;;;;;;;5037253;28;20036;-58
2022/01/06 12:33:26;;;;;;;3.72;3.33;;;;;;;;;;5037467;28;20036;-59
2022/01/06 12:35:53;;;;;;;3.28;2.97;;;;;;;;;;5033665;28;20518;-67
2022/01/06 12:38:28;;;;;;;4.65;3.55;;;;;;;;;;5035829;28;20104;-67
2022/01/06 12:40:55;;;;;;;6.57;4.38;;;;;;;;;;5037181;28;20043;-59
2022/01/06 12:43:29;;;;;;;4.35;3.72;;;;;;;;;;5037848;28;20052;-59
2022/01/06 12:46:09;;;;;;;8.70;3.78;;;;;;;;;;5036089;28;20379;-60
2022/01/06 12:48:55;;;;;;;4.70;3.93;;;;;;;;;;5038909;28;20131;-59
2022/01/06 12:51:26;;;;;;;3.92;3.58;;;;;;;;;;5038634;28;20045;-59
2022/01/06 12:54:01;;;;;;;4.68;4.28;;;;;;;;;;5040661;28;20039;-59
2022/01/06 12:56:32;;;;;;;4.43;4.03;;;;;;;;;;5042883;28;20029;-60
2022/01/06 12:59:12;;;;;;;4.97;4.47;;;;;;;;;;5047796;28;20056;-58
2022/01/06 13:01:39;;;;;;;6.90;3.93;;;;;;;;;;5040906;28;20036;-63
2022/01/06 13:04:06;;;;;;;3.38;3.08;;;;;;;;;;5043384;28;20044;-64
2022/01/06 13:06:35;;;;;;;3.50;3.20;;;;;;;;;;5045133;28;20043;-64
2022/01/06 13:09:14;;;;;;;4.88;4.38;;;;;;;;;;5042332;28;20033;-64
2022/01/06 13:11:52;;;;;;;5.45;3.97;;;;;;;;;;5041571;28;20044;-63
2022/01/06 13:14:26;;;;;;;4.55;3.15;;;;;;;;;;5041170;28;20025;-66
2022/01/06 13:16:53;;;;;;;5.65;4.22;;;;;;;;;;5040891;28;20044;-67
2022/01/06 13:19:18;;;;;;;4.00;3.33;;;;;;;;;;5041247;28;20029;-67
2022/01/06 13:21:46;;;;;;;3.78;2.75;;;;;;;;;;5041240;28;20478;-66
2022/01/06 13:24:18;;;;;;;4.45;3.67;;;;;;;;;;5037847;28;20040;-66
2022/01/06 13:26:59;;;;;;;4.68;4.28;;;;;;;;;;5040780;28;20033;-66
2022/01/06 13:29:27;;;;;;;;;;;;;;;;;;5036746;28;21301;-68
2022/01/06 13:32:20;;;;;;;4.25;3.67;;;;;;;;;;5039583;28;20026;-68
2022/01/06 13:34:47;;;;;;;6.10;3.72;;;;;;;;;;5039323;28;20033;-66
2022/01/06 13:37:16;;;;;;;3.92;3.53;;;;;;;;;;5039257;28;20184;-67
2022/01/06 13:39:43;;;;;;;5.68;3.90;;;;;;;;;;5040881;28;20044;-66
2022/01/06 13:42:11;;;;;;;4.07;3.78;;;;;;;;;;5041218;28;20041;-66
2022/01/06 13:44:47;;;;;;;6.25;4.65;;;;;;;;;;5040976;28;20032;-67
2022/01/06 13:47:18;;;;;;;3.28;2.97;;;;;;;;;;5038813;28;20025;-66
2022/01/06 13:52:28;;;;;;;3.78;3.42;;;;;;;;;;5040562;28;20072;-67
2022/01/06 13:54:55;;;;;;;14.88;4.25;;;;;;;;;;5039762;28;20029;-67
2022/01/06 13:57:21;;;;;;;9.07;3.60;;;;;;;;;;5039062;28;20482;-66
2022/01/06 13:59:48;;;;;;;4.95;4.38;;;;;;;;;;5038727;28;20034;-66
2022/01/06 14:02:14;;;;;;;3.50;3.08;;;;;;;;;;5039997;28;20037;-66
2022/01/06 14:04:44;;;;;;;4.57;3.63;;;;;;;;;;5035299;28;20033;-60
2022/01/06 14:07:09;;;;;;;3.78;3.38;;;;;;;;;;5040503;28;20315;-60
2022/01/06 14:09:35;;;;;;;5.00;3.65;;;;;;;;;;5039786;28;20033;-60
2022/01/06 14:12:00;;;;;;;3.30;3.00;;;;;;;;;;5040295;28;20041;-61
2022/01/06 14:14:27;;;;;;;3.78;3.47;;;;;;;;;;5040252;28;20383;-62
2022/01/06 14:16:53;;;;;;;3.83;3.38;;;;;;;;;;5037459;28;20111;-60
2022/01/06 14:19:19;;;;;;;4.00;3.60;;;;;;;;;;5038777;28;20033;-61
2022/01/06 14:21:44;;;;;;;3.42;3.13;;;;;;;;;;5042638;28;20032;-66
2022/01/06 14:24:10;;;;;;;4.70;3.35;;;;;;;;;;5039432;28;20309;-66
2022/01/06 14:26:36;;;;;;;3.55;3.25;;;;;;;;;;5041361;28;20362;-66
2022/01/06 14:29:02;;;;;;;7.90;3.88;;;;;;;;;;5041401;28;20292;-60
2022/01/06 14:31:27;;;;;;;3.80;3.50;;;;;;;;;;5023023;28;20034;-59
2022/01/06 14:33:53;;;;;;;10.40;3.38;;;;;;;;;;5039812;28;20033;-66
2022/01/06 14:36:20;;;;;;;3.88;3.58;;;;;;;;;;5039032;28;20029;-68
2022/01/06 14:38:47;;;;;;;12.95;4.47;;;;;;;;;;5037050;28;20029;-66
2022/01/06 14:41:15;;;;;;;3.90;3.55;;;;;;;;;;5042070;28;20033;-66
2022/01/06 14:43:41;;;;;;;3.70;3.40;;;;;;;;;;5041336;28;20655;-67
2022/01/06 14:46:07;;;;;;;3.88;3.35;;;;;;;;;;5037934;28;20199;-60
2022/01/06 14:48:32;;;;;;;6.00;3.95;;;;;;;;;;5035241;28;20137;-59
2022/01/06 14:50:58;;;;;;;3.95;3.55;;;;;;;;;;5037449;28;20038;-59
2022/01/06 14:53:24;;;;;;;3.47;3.17;;;;;;;;;;5040431;28;20462;-60
2022/01/06 14:55:49;;;;;;;3.42;3.13;;;;;;;;;;5040966;28;20418;-59
2022/01/06 14:58:15;;;;;;;6.68;4.07;;;;;;;;;;5035790;28;20033;-61